»·PEaware :: UAL231 KSAN-KDEN

UAL231 :: KSAN-KDEN

FLIGHT INFORMATION

Flight Status: Arrived
Operator:
United Airlines
More flights by this operator :: More flights under this callsign
Pilot: Saso K. (7898)
Aircraft: BOEING 737-300
(B733)
More flights by this aircraft type
Origin: KSAN San Diego Intl-Lindbergh
United States
Destination: KDEN Denver Intl
United States
More flights between these airports :: More routes between these airports
Route: ZZOOO1 MTBAL EED J236 TBC OURAY LDORA2
File this flight plan on PilotEdge
Remarks: EET / KZDV0055
Altitude:
(Current/Filed)
27,000ft
Speed:
(Current/Filed)
405kts
Departed: 28-Dec-16 02:37 PM
Arrived: 28-Dec-16 03:21 PM
Distance/Time
Traveled:
740nm/0:44
Distance/Time
To Go:
Arrived

Flight Plot

Page will automatically refresh every two minutes.

Flight plan parsing failed; only flown route is shown


Map Options




Map Legend


Flown Route
Filed Route
Departure Airport
Arrival Airport
Navaid (VOR, NDB)
Fix

Horizontal Profiles

Position Reports

Time Latitude Longitude Heading Altitude Ground
Speed
28-Dec-16 12:35 32.733389 -117.204610 80 17ft 0kts
28-Dec-16 12:36 32.733389 -117.204610 80 17ft 0kts
28-Dec-16 12:37 32.733389 -117.204610 80 17ft 0kts
28-Dec-16 12:38 32.733389 -117.204610 80 17ft 0kts
28-Dec-16 12:39 32.733389 -117.204610 80 17ft 0kts
28-Dec-16 12:40 32.733389 -117.204610 80 17ft 0kts
28-Dec-16 12:41 32.733389 -117.204610 80 17ft 0kts
28-Dec-16 12:42 32.733389 -117.204610 80 17ft 0kts
28-Dec-16 12:43 32.733389 -117.204610 80 17ft 0kts
28-Dec-16 12:44 32.733389 -117.204610 80 17ft 0kts
28-Dec-16 12:45 32.733389 -117.204610 80 17ft 0kts
28-Dec-16 14:37 37.295025 -108.756283 55 27347ft 453kts
28-Dec-16 14:38 37.356184 -108.620190 55 27348ft 453kts
28-Dec-16 14:39 37.416466 -108.485492 55 27348ft 453kts
28-Dec-16 14:40 37.471350 -108.362370 55 27349ft 453kts
28-Dec-16 14:41 37.520313 -108.252137 55 27358ft 454kts
28-Dec-16 14:42 37.578738 -108.120101 56 27370ft 454kts
28-Dec-16 14:43 37.637531 -107.986691 55 27376ft 454kts
28-Dec-16 14:44 37.696782 -107.851679 55 27371ft 454kts
28-Dec-16 14:45 37.756818 -107.714299 55 27373ft 454kts
28-Dec-16 14:46 37.816586 -107.576946 56 27374ft 454kts
28-Dec-16 14:47 37.872502 -107.447910 56 27373ft 454kts
28-Dec-16 14:48 37.926038 -107.323877 56 27367ft 454kts
28-Dec-16 14:49 37.984116 -107.188779 56 27339ft 453kts
28-Dec-16 14:50 38.042332 -107.052781 56 27296ft 452kts
28-Dec-16 14:51 38.100576 -106.916139 56 27289ft 453kts
28-Dec-16 14:52 38.151031 -106.797269 55 27293ft 454kts
28-Dec-16 14:53 38.209808 -106.658752 54 27309ft 451kts
28-Dec-16 14:54 38.280620 -106.536041 33 27291ft 431kts
28-Dec-16 14:55 38.366131 -106.431391 35 27279ft 436kts
28-Dec-16 14:56 38.442778 -106.336645 35 27271ft 437kts
28-Dec-16 14:57 38.521404 -106.238945 36 27278ft 438kts
28-Dec-16 14:58 38.606943 -106.131991 36 27264ft 438kts
28-Dec-16 14:59 38.692586 -106.024277 36 27221ft 438kts
28-Dec-16 15:00 38.777990 -105.916745 36 27227ft 438kts
28-Dec-16 15:01 38.863719 -105.808406 36 27211ft 438kts
28-Dec-16 15:02 38.949421 -105.699467 34 26656ft 442kts
28-Dec-16 15:03 39.034908 -105.590371 32 23976ft 438kts
28-Dec-16 15:04 39.105996 -105.499401 33 21903ft 430kts
28-Dec-16 15:05 39.181963 -105.400454 34 19714ft 417kts
28-Dec-16 15:06 39.255979 -105.302239 49 18129ft 391kts
28-Dec-16 15:07 39.283048 -105.170488 71 16681ft 379kts
28-Dec-16 15:08 39.306180 -105.045853 71 15459ft 361kts
28-Dec-16 15:09 39.329899 -104.926479 71 14089ft 351kts
28-Dec-16 15:10 39.352383 -104.821217 64 13865ft 298kts
28-Dec-16 15:11 39.378983 -104.728466 62 12701ft 285kts
28-Dec-16 15:12 39.425786 -104.667713 7 11898ft 244kts
28-Dec-16 15:13 39.489129 -104.664618 351 12001ft 232kts
28-Dec-16 15:14 39.545127 -104.663837 350 11205ft 204kts
28-Dec-16 15:15 39.599054 -104.663882 353 10010ft 194kts
28-Dec-16 15:16 39.651006 -104.663086 355 8956ft 192kts
28-Dec-16 15:17 39.700436 -104.662312 356 7957ft 175kts
28-Dec-16 15:18 39.743294 -104.661663 356 7114ft 155kts
28-Dec-16 15:19 39.784336 -104.661109 356 6302ft 139kts
28-Dec-16 15:20 39.821883 -104.660645 356 5585ft 136kts
28-Dec-16 15:21 39.850342 -104.660363 353 5405ft 40kts
28-Dec-16 15:22 39.853650 -104.662101 330 5415ft 7kts
28-Dec-16 15:23 39.856748 -104.662407 314 5425ft 2kts
28-Dec-16 15:24 39.856596 -104.665793 260 5425ft 14kts
28-Dec-16 15:24 39.857293 -104.669446 270 5418ft 10kts
28-Dec-16 15:26 39.858043 -104.670852 359 5414ft 1kts
28-Dec-16 15:27 39.858054 -104.670852 359 5414ft 0kts
28-Dec-16 15:28 39.858054 -104.670852 359 5414ft 0kts
28-Dec-16 15:28 39.858054 -104.670852 359 5414ft 0kts
28-Dec-16 15:30 39.858054 -104.670852 359 5414ft 0kts
28-Dec-16 15:31 39.858054 -104.670852 359 5414ft 0kts
28-Dec-16 15:32 39.858054 -104.670852 359 5414ft 0kts
28-Dec-16 15:32 39.858054 -104.670852 359 5414ft 0kts
28-Dec-16 15:33 39.858054 -104.670852 359 5414ft 0kts
28-Dec-16 15:35 39.858054 -104.670852 359 5414ft 0kts

Navigation Log

Ident Type
Flight plan parsing failed, navigation log unavailable